createdAt,value
2022-12-12T00:00:48.057Z,12.10
2022-12-12T00:01:47.819Z,11.40
2022-12-12T00:02:47.881Z,12.40
2022-12-12T00:03:47.920Z,11.80
2022-12-12T00:04:47.767Z,12.10
2022-12-12T00:05:47.979Z,11.80
2022-12-12T00:06:47.747Z,13.90
2022-12-12T00:07:47.777Z,12.90
2022-12-12T00:08:47.949Z,12.20
2022-12-12T00:09:47.758Z,11.80
2022-12-12T00:10:47.940Z,11.80
2022-12-12T00:11:47.686Z,12.30
2022-12-12T00:12:47.699Z,12.70
2022-12-12T00:13:47.883Z,13.10
2022-12-12T00:14:47.655Z,11.70
2022-12-12T00:15:47.650Z,12.30
2022-12-12T00:16:47.834Z,11.80
2022-12-12T00:17:47.603Z,13.30
2022-12-12T00:18:47.595Z,12.10
2022-12-12T00:19:47.594Z,11.60
2022-12-12T00:20:47.572Z,12.70
2022-12-12T00:21:47.773Z,12.20
2022-12-12T00:22:47.552Z,11.50
2022-12-12T00:23:47.540Z,11.20
2022-12-12T00:24:47.521Z,12.60
2022-12-12T00:25:47.512Z,12.30
2022-12-12T00:26:47.711Z,12.10
2022-12-12T00:27:47.504Z,11.60
2022-12-12T00:28:47.471Z,12.90
2022-12-12T00:29:47.464Z,11.70
2022-12-12T00:30:47.493Z,12.60
2022-12-12T00:31:47.650Z,12.20
2022-12-12T00:32:47.422Z,12.20
2022-12-12T00:33:47.409Z,12.20
2022-12-12T00:34:47.405Z,12.30
2022-12-12T00:35:47.389Z,12.60
2022-12-12T00:36:47.398Z,11.70
2022-12-12T00:37:47.370Z,12.50
2022-12-12T00:38:47.347Z,11.60
2022-12-12T00:39:47.549Z,12.00
2022-12-12T00:40:47.338Z,12.70
2022-12-12T00:41:47.319Z,12.30
2022-12-12T00:42:47.302Z,11.60
2022-12-12T00:43:47.296Z,12.30
2022-12-12T00:44:47.467Z,12.10
2022-12-12T00:45:47.264Z,12.20
2022-12-12T00:46:47.309Z,12.00
2022-12-12T00:47:47.447Z,12.20
2022-12-12T00:48:47.228Z,11.70
2022-12-12T00:49:47.214Z,12.40
2022-12-12T00:50:47.198Z,12.60
2022-12-12T00:51:47.396Z,12.20
2022-12-12T00:52:47.184Z,12.30
2022-12-12T00:53:47.187Z,11.80
2022-12-12T00:54:47.145Z,12.40
2022-12-12T00:55:47.142Z,12.50
2022-12-12T00:56:47.138Z,12.00
2022-12-12T00:57:47.298Z,12.30
2022-12-12T00:58:47.104Z,13.00
2022-12-12T00:59:47.083Z,12.60
2022-12-12T01:00:47.082Z,11.90
2022-12-12T01:01:47.122Z,12.90
2022-12-12T01:02:47.286Z,13.20
2022-12-12T01:03:47.035Z,12.80
2022-12-12T01:04:47.077Z,12.20
2022-12-12T01:05:47.201Z,12.40
2022-12-12T01:06:47.003Z,12.10
2022-12-12T01:07:47.069Z,13.10
2022-12-12T01:08:46.972Z,12.50
2022-12-12T01:09:46.964Z,13.00
2022-12-12T01:10:47.139Z,13.00
2022-12-12T01:11:46.948Z,12.60
2022-12-12T01:12:46.942Z,12.30
2022-12-12T01:13:46.913Z,12.70
2022-12-12T01:14:47.370Z,13.00
2022-12-12T01:15:46.937Z,12.40
2022-12-12T01:16:46.888Z,12.80
2022-12-12T01:17:46.867Z,12.80
2022-12-12T01:18:47.058Z,12.70
2022-12-12T01:19:46.848Z,13.30
2022-12-12T01:20:46.906Z,12.90
2022-12-12T01:21:46.828Z,12.60
2022-12-12T01:22:46.810Z,12.40
2022-12-12T01:23:47.007Z,12.30
2022-12-12T01:24:46.786Z,12.50
2022-12-12T01:25:46.978Z,12.10
2022-12-12T01:26:46.755Z,11.90
2022-12-12T01:27:46.745Z,12.50
2022-12-12T01:28:46.748Z,11.60
2022-12-12T01:29:46.707Z,12.50
2022-12-12T01:30:46.945Z,12.40
2022-12-12T01:31:46.721Z,12.50
2022-12-12T01:32:46.755Z,12.90
2022-12-12T01:33:46.889Z,12.80
2022-12-12T01:34:46.676Z,12.20
2022-12-12T01:35:46.855Z,13.10
2022-12-12T01:36:46.632Z,12.70
2022-12-12T01:37:46.622Z,13.00
2022-12-12T01:38:46.823Z,13.00
2022-12-12T01:39:46.622Z,11.10
2022-12-12T01:40:46.804Z,12.00
2022-12-12T01:41:46.569Z,12.50
2022-12-12T01:42:46.553Z,12.90
2022-12-12T01:43:46.548Z,12.60
2022-12-12T01:44:46.523Z,12.30
2022-12-12T01:45:46.721Z,12.20
2022-12-12T01:46:46.577Z,12.50
2022-12-12T01:47:46.504Z,12.00
2022-12-12T01:48:46.471Z,12.60
2022-12-12T01:49:46.479Z,13.00
2022-12-12T01:50:46.493Z,11.90
2022-12-12T01:51:46.657Z,12.40
2022-12-12T01:52:46.445Z,12.60
2022-12-12T01:53:46.418Z,11.40
2022-12-12T01:54:46.410Z,12.60
2022-12-12T01:55:46.396Z,12.20
2022-12-12T01:56:46.693Z,11.30
2022-12-12T01:57:46.377Z,12.40
2022-12-12T01:58:46.348Z,11.40
2022-12-12T01:59:46.387Z,11.90
2022-12-12T02:00:46.358Z,12.20
2022-12-12T02:01:46.410Z,12.10
2022-12-12T02:02:46.331Z,12.30
2022-12-12T02:03:46.303Z,11.30
2022-12-12T02:04:46.292Z,12.30
2022-12-12T02:05:46.273Z,12.40
2022-12-12T02:06:46.257Z,11.30
2022-12-12T02:07:46.501Z,13.10
2022-12-12T02:08:46.227Z,12.00
2022-12-12T02:09:46.474Z,12.20
2022-12-12T02:10:46.404Z,11.80
2022-12-12T02:11:46.204Z,11.90
2022-12-12T02:12:46.173Z,12.60
2022-12-12T02:13:46.180Z,11.60
2022-12-12T02:14:46.425Z,11.70
2022-12-12T02:15:46.155Z,11.30
2022-12-12T02:16:46.132Z,12.00
2022-12-12T02:17:46.123Z,12.10
2022-12-12T02:18:46.113Z,11.70
2022-12-12T02:19:46.292Z,12.00
2022-12-12T02:20:46.071Z,11.60
2022-12-12T02:21:46.097Z,12.90
2022-12-12T02:22:46.061Z,11.80
2022-12-12T02:23:46.067Z,11.20
2022-12-12T02:24:46.031Z,11.30
2022-12-12T02:25:46.268Z,12.40
2022-12-12T02:26:46.009Z,12.20
2022-12-12T02:27:45.989Z,11.50
2022-12-12T02:28:45.990Z,12.00
2022-12-12T02:29:45.969Z,12.00
2022-12-12T02:30:46.178Z,11.00
2022-12-12T02:31:45.991Z,11.30
2022-12-12T02:32:45.938Z,10.60
2022-12-12T02:33:45.928Z,10.20
2022-12-12T02:34:45.907Z,12.10
2022-12-12T02:35:46.138Z,11.20
2022-12-12T02:36:45.878Z,11.30
2022-12-12T02:37:45.876Z,10.70
2022-12-12T02:38:45.864Z,10.30
2022-12-12T02:39:45.850Z,10.90
2022-12-12T02:40:46.036Z,10.40
2022-12-12T02:41:45.816Z,11.10
2022-12-12T02:42:45.806Z,11.60
2022-12-12T02:43:45.806Z,11.20
2022-12-12T02:44:45.795Z,12.00
2022-12-12T02:45:45.768Z,11.30
2022-12-12T02:46:45.815Z,10.80
2022-12-12T02:47:45.754Z,9.90
2022-12-12T02:48:45.736Z,11.80
2022-12-12T02:49:45.724Z,10.90
2022-12-12T02:50:45.704Z,10.70
2022-12-12T02:51:45.724Z,11.00
2022-12-12T02:52:45.674Z,11.10
2022-12-12T02:53:45.886Z,10.80
2022-12-12T02:54:45.654Z,11.60
2022-12-12T02:55:45.663Z,11.70
2022-12-12T02:56:45.637Z,11.60
2022-12-12T02:57:45.622Z,11.70
2022-12-12T02:58:45.823Z,10.50
2022-12-12T02:59:45.611Z,9.80
2022-12-12T03:00:45.602Z,10.30
2022-12-12T03:01:45.614Z,11.80
2022-12-12T03:02:45.760Z,11.10
2022-12-12T03:03:45.550Z,12.30
2022-12-12T03:04:45.540Z,11.50
2022-12-12T03:05:45.533Z,11.00
2022-12-12T03:06:45.730Z,10.50
2022-12-12T03:07:45.809Z,11.40
2022-12-12T03:08:45.490Z,11.20
2022-12-12T03:09:45.480Z,11.70
2022-12-12T03:10:45.458Z,11.50
2022-12-12T03:11:45.682Z,10.30
2022-12-12T03:12:45.436Z,11.50
2022-12-12T03:13:45.430Z,10.20
2022-12-12T03:14:45.424Z,10.90
2022-12-12T03:15:45.400Z,10.90
2022-12-12T03:16:45.393Z,10.60
2022-12-12T03:17:45.596Z,11.00
2022-12-12T03:18:45.567Z,11.10
2022-12-12T03:19:45.345Z,11.60
2022-12-12T03:20:45.327Z,11.40
2022-12-12T03:21:45.329Z,11.60
2022-12-12T03:22:45.517Z,11.80
2022-12-12T03:23:45.307Z,10.20
2022-12-12T03:24:45.284Z,11.50
2022-12-12T03:25:45.294Z,11.30
2022-12-12T03:26:45.254Z,11.20
2022-12-12T03:27:45.474Z,10.90
2022-12-12T03:28:45.225Z,9.40
2022-12-12T03:29:45.259Z,11.20
2022-12-12T03:30:45.217Z,10.00
2022-12-12T03:31:45.246Z,10.40
2022-12-12T03:32:45.405Z,10.60
2022-12-12T03:33:45.194Z,10.40
2022-12-12T03:34:45.371Z,10.50
2022-12-12T03:35:45.154Z,10.80
2022-12-12T03:36:45.142Z,10.20
2022-12-12T03:37:45.322Z,11.00
2022-12-12T03:38:45.102Z,10.10
2022-12-12T03:39:45.100Z,11.60
2022-12-12T03:40:45.080Z,11.00
2022-12-12T03:41:45.100Z,10.50
2022-12-12T03:42:45.058Z,10.70
2022-12-12T03:43:45.050Z,10.30
2022-12-12T03:44:45.040Z,10.40
2022-12-12T03:45:45.280Z,10.60
2022-12-12T03:46:45.009Z,10.30
2022-12-12T03:47:45.001Z,10.70
2022-12-12T03:48:44.989Z,10.90
2022-12-12T03:49:44.988Z,10.00
2022-12-12T03:50:45.171Z,10.00
2022-12-12T03:51:44.947Z,9.80
2022-12-12T03:52:45.158Z,10.10
2022-12-12T03:53:44.936Z,11.00
2022-12-12T03:54:44.926Z,10.30
2022-12-12T03:55:45.087Z,11.20
2022-12-12T03:56:44.886Z,10.60
2022-12-12T03:57:44.878Z,10.10
2022-12-12T03:58:44.895Z,10.70
2022-12-12T03:59:44.856Z,10.30
2022-12-12T04:00:44.874Z,10.60
2022-12-12T04:01:44.824Z,10.90
2022-12-12T04:02:44.915Z,11.30
2022-12-12T04:03:44.795Z,11.80
2022-12-12T04:04:44.795Z,10.50
2022-12-12T04:05:44.778Z,11.50
2022-12-12T04:06:44.754Z,10.60
2022-12-12T04:07:45.141Z,10.30
2022-12-12T04:08:44.943Z,10.60
2022-12-12T04:09:44.725Z,11.40
2022-12-12T04:10:44.712Z,10.20
2022-12-12T04:11:44.694Z,11.30
2022-12-12T04:12:44.721Z,10.00
2022-12-12T04:13:44.891Z,10.70
2022-12-12T04:14:44.663Z,10.20
2022-12-12T04:15:44.670Z,10.80
2022-12-12T04:16:44.667Z,10.60
2022-12-12T04:17:44.831Z,10.90
2022-12-12T04:18:44.645Z,10.70
2022-12-12T04:19:44.638Z,10.50
2022-12-12T04:20:44.592Z,10.20
2022-12-12T04:21:44.605Z,10.60
2022-12-12T04:22:44.770Z,10.30
2022-12-12T04:23:44.768Z,10.00
2022-12-12T04:24:44.556Z,10.20
2022-12-12T04:25:44.720Z,10.30
2022-12-12T04:26:44.517Z,9.70
2022-12-12T04:27:44.503Z,10.80
2022-12-12T04:28:44.490Z,11.00
2022-12-12T04:29:44.468Z,10.40
2022-12-12T04:30:44.687Z,9.90
2022-12-12T04:31:44.523Z,9.90
2022-12-12T04:32:44.441Z,10.10
2022-12-12T04:33:44.418Z,10.80
2022-12-12T04:34:44.436Z,10.60
2022-12-12T04:35:44.617Z,10.50
2022-12-12T04:36:44.395Z,10.40
2022-12-12T04:37:44.393Z,10.20
2022-12-12T04:38:44.366Z,10.10
2022-12-12T04:39:44.355Z,9.70
2022-12-12T04:40:44.564Z,11.00
2022-12-12T04:41:44.324Z,10.00
2022-12-12T04:42:44.320Z,9.80
2022-12-12T04:43:44.306Z,10.30
2022-12-12T04:44:44.487Z,10.30
2022-12-12T04:45:44.289Z,10.80
2022-12-12T04:46:44.268Z,11.30
2022-12-12T04:47:44.255Z,10.70
2022-12-12T04:48:44.377Z,10.20
2022-12-12T04:49:44.431Z,10.50
2022-12-12T04:50:44.215Z,10.10
2022-12-12T04:51:44.193Z,10.20
2022-12-12T04:52:44.191Z,10.10
2022-12-12T04:53:44.180Z,9.80
2022-12-12T04:54:44.170Z,9.80
2022-12-12T04:55:44.341Z,10.20
2022-12-12T04:56:44.146Z,10.40
2022-12-12T04:57:44.124Z,10.40
2022-12-12T04:58:44.120Z,10.40
2022-12-12T04:59:44.118Z,10.40
2022-12-12T05:00:44.097Z,10.10
2022-12-12T05:01:48.187Z,11.00
2022-12-12T05:02:45.128Z,11.00
2022-12-12T05:03:44.059Z,10.50
2022-12-12T05:04:44.248Z,10.70
2022-12-12T05:05:44.248Z,10.90
2022-12-12T05:06:44.025Z,10.30
2022-12-12T05:07:44.007Z,11.20
2022-12-12T05:08:43.994Z,10.50
2022-12-12T05:09:43.988Z,10.60
2022-12-12T05:10:44.178Z,10.90
2022-12-12T05:11:43.947Z,10.30
2022-12-12T05:12:44.173Z,10.90
2022-12-12T05:13:43.926Z,10.10
2022-12-12T05:14:43.925Z,9.30
2022-12-12T05:15:45.115Z,9.90
2022-12-12T05:16:44.146Z,11.00
2022-12-12T05:17:43.878Z,11.00
2022-12-12T05:18:43.875Z,10.90
2022-12-12T05:19:44.070Z,10.30
2022-12-12T05:20:43.843Z,10.10
2022-12-12T05:21:44.043Z,10.30
2022-12-12T05:22:43.831Z,10.30
2022-12-12T05:23:43.808Z,10.20
2022-12-12T05:24:43.983Z,10.20
2022-12-12T05:25:43.785Z,10.50
2022-12-12T05:26:43.784Z,11.00
2022-12-12T05:27:43.963Z,11.20
2022-12-12T05:28:43.742Z,10.40
2022-12-12T05:29:43.731Z,11.30
2022-12-12T05:30:43.799Z,10.10
2022-12-12T05:31:43.723Z,10.40
2022-12-12T05:32:43.729Z,10.30
2022-12-12T05:33:43.682Z,10.50
2022-12-12T05:34:43.680Z,10.90
2022-12-12T05:35:43.660Z,10.30
2022-12-12T05:36:43.661Z,10.00
2022-12-12T05:37:48.193Z,10.30
2022-12-12T05:38:44.649Z,11.20
2022-12-12T05:39:43.619Z,10.20
2022-12-12T05:40:43.599Z,11.60
2022-12-12T05:41:43.580Z,10.50
2022-12-12T05:42:43.597Z,10.90
2022-12-12T05:43:43.569Z,10.70
2022-12-12T05:44:43.557Z,9.80
2022-12-12T05:45:43.763Z,11.00
2022-12-12T05:46:43.529Z,11.40
2022-12-12T05:47:43.537Z,10.90
2022-12-12T05:48:43.497Z,9.80
2022-12-12T05:49:43.487Z,9.80
2022-12-12T05:50:43.484Z,10.80
2022-12-12T05:51:43.466Z,10.90
2022-12-12T05:52:43.460Z,10.40
2022-12-12T05:53:43.455Z,10.10
2022-12-12T05:54:43.424Z,11.20
2022-12-12T05:55:43.405Z,10.20
2022-12-12T05:56:43.408Z,10.30
2022-12-12T05:57:44.125Z,11.50
2022-12-12T05:58:43.385Z,11.00
2022-12-12T05:59:43.364Z,11.10
2022-12-12T06:00:43.344Z,10.60
2022-12-12T06:01:43.357Z,11.20
2022-12-12T06:02:43.642Z,10.30
2022-12-12T06:03:43.317Z,10.80
2022-12-12T06:04:43.292Z,11.60
2022-12-12T06:05:43.291Z,11.20
2022-12-12T06:06:43.272Z,10.30
2022-12-12T06:07:43.464Z,10.70
2022-12-12T06:08:43.288Z,10.50
2022-12-12T06:09:43.232Z,10.90
2022-12-12T06:10:43.221Z,9.20
2022-12-12T06:11:43.220Z,13.20
2022-12-12T06:12:43.209Z,11.60
2022-12-12T06:13:43.390Z,11.60
2022-12-12T06:14:43.180Z,10.90
2022-12-12T06:15:43.217Z,10.40
2022-12-12T06:16:43.159Z,10.10
2022-12-12T06:17:43.145Z,10.70
2022-12-12T06:18:43.369Z,11.40
2022-12-12T06:19:43.116Z,11.60
2022-12-12T06:20:43.098Z,12.10
2022-12-12T06:21:43.096Z,10.70
2022-12-12T06:22:43.069Z,10.90
2022-12-12T06:23:43.090Z,10.90
2022-12-12T06:24:43.047Z,12.60
2022-12-12T06:25:43.044Z,12.10
2022-12-12T06:26:43.025Z,12.10
2022-12-12T06:27:43.016Z,11.00
2022-12-12T06:28:43.037Z,10.80
2022-12-12T06:29:42.995Z,11.40
2022-12-12T06:30:43.045Z,10.70
2022-12-12T06:31:43.003Z,11.00
2022-12-12T06:32:42.955Z,10.70
2022-12-12T06:33:42.948Z,10.90
2022-12-12T06:34:43.127Z,10.00
2022-12-12T06:35:42.915Z,11.20
2022-12-12T06:36:42.898Z,11.20
2022-12-12T06:37:42.895Z,10.50
2022-12-12T06:38:43.073Z,10.70
2022-12-12T06:39:42.864Z,10.40
2022-12-12T06:40:42.920Z,11.70
2022-12-12T06:41:43.054Z,11.00
2022-12-12T06:42:47.902Z,10.30
2022-12-12T06:43:43.812Z,10.40
2022-12-12T06:44:43.023Z,10.60
2022-12-12T06:45:42.792Z,11.00
2022-12-12T06:46:43.787Z,10.20
2022-12-12T06:47:42.770Z,10.90
2022-12-12T06:48:42.979Z,10.40
2022-12-12T06:49:42.743Z,10.50
2022-12-12T06:50:42.731Z,10.30
2022-12-12T06:51:42.722Z,10.20
2022-12-12T06:52:42.711Z,10.20
2022-12-12T06:53:42.911Z,9.40
2022-12-12T06:54:42.881Z,10.60
2022-12-12T06:55:42.663Z,10.10
2022-12-12T06:56:48.012Z,10.10
2022-12-12T06:57:43.648Z,10.10
2022-12-12T06:58:42.840Z,10.80
2022-12-12T06:59:42.637Z,10.20
2022-12-12T07:00:42.628Z,10.00
2022-12-12T07:01:42.686Z,10.20
2022-12-12T07:02:42.615Z,9.80
2022-12-12T07:03:42.574Z,11.80
2022-12-12T07:04:42.800Z,10.00
2022-12-12T07:05:42.548Z,10.50
2022-12-12T07:06:42.535Z,9.80
2022-12-12T07:07:42.516Z,11.00
2022-12-12T07:08:42.519Z,10.10
2022-12-12T07:09:42.705Z,11.20
2022-12-12T07:10:42.484Z,11.30
2022-12-12T07:11:42.467Z,11.90
2022-12-12T07:12:46.595Z,10.50
2022-12-12T07:13:43.446Z,9.80
2022-12-12T07:14:42.433Z,11.00
2022-12-12T07:15:42.756Z,10.60
2022-12-12T07:16:43.227Z,10.70
2022-12-12T07:17:42.393Z,10.00
2022-12-12T07:18:42.383Z,10.50
2022-12-12T07:19:42.564Z,10.20
2022-12-12T07:20:42.360Z,10.90
2022-12-12T07:21:42.342Z,10.10
2022-12-12T07:22:42.392Z,9.90
2022-12-12T07:23:42.329Z,9.90
2022-12-12T07:24:42.316Z,11.00
2022-12-12T07:25:42.543Z,10.70
2022-12-12T07:26:42.307Z,11.20
2022-12-12T07:27:42.272Z,10.50
2022-12-12T07:28:42.266Z,10.80
2022-12-12T07:29:42.270Z,10.90
2022-12-12T07:30:42.325Z,10.80
2022-12-12T07:31:42.439Z,9.80
2022-12-12T07:32:42.211Z,11.20
2022-12-12T07:33:44.497Z,10.70
2022-12-12T07:34:42.208Z,11.50
2022-12-12T07:35:42.169Z,9.20
2022-12-12T07:36:42.167Z,11.30
2022-12-12T07:37:42.148Z,11.70
2022-12-12T07:38:42.138Z,10.10
2022-12-12T07:39:42.153Z,10.70
2022-12-12T07:40:42.117Z,11.70
2022-12-12T07:41:42.092Z,11.90
2022-12-12T07:42:42.101Z,10.10
2022-12-12T07:43:44.119Z,11.30
2022-12-12T07:44:42.315Z,11.40
2022-12-12T07:45:42.045Z,10.70
2022-12-12T07:46:42.117Z,11.30
2022-12-12T07:47:42.019Z,12.60
2022-12-12T07:48:42.029Z,13.40
2022-12-12T07:49:41.995Z,13.90
2022-12-12T07:50:42.005Z,12.80
2022-12-12T07:51:48.587Z,11.30
2022-12-12T07:52:42.964Z,11.20
2022-12-12T07:53:41.944Z,11.60
2022-12-12T07:54:41.935Z,10.90
2022-12-12T07:55:42.115Z,11.30
2022-12-12T07:56:41.913Z,11.80
2022-12-12T07:57:41.922Z,12.30
2022-12-12T07:58:41.886Z,10.30
2022-12-12T07:59:41.873Z,12.40
2022-12-12T08:00:41.873Z,12.90
2022-12-12T08:01:41.922Z,11.50
2022-12-12T08:02:41.860Z,20.50
2022-12-12T08:03:41.824Z,16.40
2022-12-12T08:04:41.894Z,15.40
2022-12-12T08:05:42.010Z,14.30
2022-12-12T08:06:41.792Z,14.10
2022-12-12T08:07:41.879Z,19.30
2022-12-12T08:08:41.773Z,16.30
2022-12-12T08:09:41.750Z,14.10
2022-12-12T08:10:42.008Z,15.90
2022-12-12T08:11:46.088Z,19.00
2022-12-12T08:12:41.714Z,17.90
2022-12-12T08:13:41.696Z,16.80
2022-12-12T08:14:41.688Z,13.90
2022-12-12T08:15:41.874Z,14.40
2022-12-12T08:16:41.657Z,12.10
2022-12-12T08:17:41.648Z,11.90
2022-12-12T08:18:41.648Z,11.90
2022-12-12T08:19:41.616Z,12.50
2022-12-12T08:20:41.816Z,12.50
2022-12-12T08:21:41.596Z,12.20
2022-12-12T08:22:41.596Z,10.80
2022-12-12T08:23:41.573Z,11.40
2022-12-12T08:24:41.787Z,11.30
2022-12-12T08:25:41.566Z,12.70
2022-12-12T08:26:41.544Z,12.80
2022-12-12T08:27:41.546Z,10.50
2022-12-12T08:28:41.754Z,11.60
2022-12-12T08:29:41.503Z,11.20
2022-12-12T08:30:41.694Z,11.40
2022-12-12T08:31:41.534Z,14.60
2022-12-12T08:32:41.464Z,12.00
2022-12-12T08:33:41.444Z,11.80
2022-12-12T08:34:41.733Z,12.30
2022-12-12T08:35:41.701Z,12.10
2022-12-12T08:36:41.426Z,15.30
2022-12-12T08:37:41.401Z,11.40
2022-12-12T08:38:41.403Z,12.20
2022-12-12T08:39:41.571Z,13.60
2022-12-12T08:40:41.390Z,12.30
2022-12-12T08:41:41.561Z,15.80
2022-12-12T08:42:41.343Z,16.10
2022-12-12T08:43:41.321Z,15.50
2022-12-12T08:44:41.554Z,17.10
2022-12-12T08:45:41.299Z,16.30
2022-12-12T08:46:41.618Z,12.40
2022-12-12T08:47:41.271Z,14.70
2022-12-12T08:48:41.269Z,12.20
2022-12-12T08:49:41.477Z,12.50
2022-12-12T08:50:41.252Z,11.10
2022-12-12T08:51:41.228Z,12.00
2022-12-12T08:52:41.227Z,11.30
2022-12-12T08:53:41.215Z,11.10
2022-12-12T08:54:41.197Z,10.50
2022-12-12T08:55:41.408Z,12.20
2022-12-12T08:56:41.398Z,11.90
2022-12-12T08:57:41.156Z,10.90
2022-12-12T08:58:41.158Z,11.40
2022-12-12T08:59:41.126Z,11.50
2022-12-12T09:00:41.127Z,15.20
2022-12-12T09:01:41.469Z,15.60
2022-12-12T09:02:41.213Z,13.40
2022-12-12T09:03:41.088Z,11.90
2022-12-12T09:04:41.065Z,12.10
2022-12-12T09:05:41.274Z,11.40
2022-12-12T09:06:41.259Z,11.70
2022-12-12T09:07:41.024Z,12.40
2022-12-12T09:08:41.265Z,11.40
2022-12-12T09:09:41.002Z,12.30
2022-12-12T09:10:41.001Z,10.90
2022-12-12T09:11:41.166Z,11.20
2022-12-12T09:12:42.097Z,12.40
2022-12-12T09:13:40.962Z,12.20
2022-12-12T09:14:40.943Z,12.40
2022-12-12T09:15:40.921Z,12.60
2022-12-12T09:16:41.147Z,13.90
2022-12-12T09:17:40.902Z,13.40
2022-12-12T09:18:46.364Z,13.60
2022-12-12T09:19:41.882Z,13.40
2022-12-12T09:20:40.870Z,12.90
2022-12-12T09:21:41.072Z,12.40
2022-12-12T09:22:40.850Z,11.60
2022-12-12T09:23:41.049Z,11.80
2022-12-12T09:24:40.819Z,12.00
2022-12-12T09:25:42.695Z,12.50
2022-12-12T09:26:41.011Z,11.20
2022-12-12T09:27:40.788Z,11.40
2022-12-12T09:28:40.769Z,12.20
2022-12-12T09:29:40.758Z,12.00
2022-12-12T09:30:40.762Z,11.20
2022-12-12T09:31:40.851Z,10.80
2022-12-12T09:32:40.729Z,11.90
2022-12-12T09:33:40.707Z,11.20
2022-12-12T09:34:40.697Z,11.10
2022-12-12T09:35:40.678Z,12.60
2022-12-12T09:36:40.877Z,11.50
2022-12-12T09:37:40.661Z,11.40
2022-12-12T09:38:40.654Z,11.50
2022-12-12T09:39:40.859Z,11.90
2022-12-12T09:40:40.625Z,10.90
2022-12-12T09:41:40.614Z,12.20
2022-12-12T09:42:40.905Z,10.90
2022-12-12T09:43:40.595Z,10.90
2022-12-12T09:44:40.803Z,11.00
2022-12-12T09:45:40.562Z,11.00
2022-12-12T09:46:40.554Z,11.80
2022-12-12T09:47:40.726Z,11.20
2022-12-12T09:48:40.528Z,11.50
2022-12-12T09:49:43.727Z,11.20
2022-12-12T09:50:40.492Z,11.40
2022-12-12T09:51:40.482Z,12.20
2022-12-12T09:52:40.501Z,11.20
2022-12-12T09:53:40.481Z,11.80
2022-12-12T09:54:40.441Z,11.00
2022-12-12T09:55:40.460Z,11.60
2022-12-12T09:56:40.422Z,10.40
2022-12-12T09:57:40.414Z,10.90
2022-12-12T09:58:45.094Z,11.00
2022-12-12T09:59:41.390Z,11.30
2022-12-12T10:00:40.473Z,11.10
2022-12-12T10:01:40.654Z,12.20
2022-12-12T10:02:40.344Z,12.60
2022-12-12T10:03:40.589Z,11.80
2022-12-12T10:04:40.360Z,11.50
2022-12-12T10:05:40.319Z,11.30
2022-12-12T10:06:40.289Z,11.70
2022-12-12T10:07:40.500Z,11.30
2022-12-12T10:08:40.279Z,10.60
2022-12-12T10:09:40.481Z,11.90
2022-12-12T10:10:40.256Z,12.20
2022-12-12T10:11:40.237Z,10.70
2022-12-12T10:12:40.228Z,11.00
2022-12-12T10:13:40.217Z,10.60
2022-12-12T10:14:40.436Z,11.60
2022-12-12T10:15:40.186Z,10.80
2022-12-12T10:16:40.270Z,10.80
2022-12-12T10:17:40.169Z,10.50
2022-12-12T10:18:40.145Z,11.20
2022-12-12T10:19:40.377Z,10.60
2022-12-12T10:20:40.344Z,10.40
2022-12-12T10:21:40.105Z,10.80
2022-12-12T10:22:40.103Z,10.60
2022-12-12T10:23:40.134Z,11.20
2022-12-12T10:24:40.304Z,10.90
2022-12-12T10:25:40.063Z,10.60
2022-12-12T10:26:40.051Z,10.20
2022-12-12T10:27:40.035Z,10.40
2022-12-12T10:28:40.049Z,10.30
2022-12-12T10:29:41.697Z,10.40
2022-12-12T10:30:40.009Z,10.30
2022-12-12T10:31:40.323Z,11.00
2022-12-12T10:32:39.982Z,10.30
2022-12-12T10:33:39.961Z,9.60
2022-12-12T10:34:39.976Z,10.80
2022-12-12T10:35:40.171Z,11.10
2022-12-12T10:36:39.932Z,10.60
2022-12-12T10:37:39.910Z,10.70
2022-12-12T10:38:39.901Z,12.10
2022-12-12T10:39:39.890Z,10.20
2022-12-12T10:40:40.101Z,10.70
2022-12-12T10:41:40.081Z,10.80
2022-12-12T10:42:39.848Z,10.60
2022-12-12T10:43:39.839Z,10.90
2022-12-12T10:44:42.946Z,10.00
2022-12-12T10:45:40.847Z,10.80
2022-12-12T10:46:39.921Z,10.50
2022-12-12T10:47:39.829Z,11.30
2022-12-12T10:48:39.808Z,11.30
2022-12-12T10:49:39.767Z,10.80
2022-12-12T10:50:40.006Z,10.90
2022-12-12T10:51:39.735Z,11.80
2022-12-12T10:52:39.745Z,11.70
2022-12-12T10:53:39.747Z,11.60
2022-12-12T10:54:39.704Z,11.10
2022-12-12T10:55:39.918Z,11.20
2022-12-12T10:56:39.895Z,11.30
2022-12-12T10:57:39.673Z,11.10
2022-12-12T10:58:39.671Z,11.00
2022-12-12T10:59:39.666Z,11.10
2022-12-12T11:00:39.641Z,10.40
2022-12-12T11:02:09.511Z,9.80
2022-12-12T11:02:40.811Z,11.10
2022-12-12T11:03:39.628Z,10.10
2022-12-12T11:04:39.581Z,10.10
2022-12-12T11:05:39.632Z,11.20
2022-12-12T11:06:39.612Z,10.60
2022-12-12T11:07:39.864Z,10.30
2022-12-12T11:08:39.670Z,10.10
2022-12-12T11:09:39.581Z,10.70
2022-12-12T11:10:39.502Z,10.50
2022-12-12T11:11:39.720Z,10.40
2022-12-12T11:12:39.480Z,11.10
2022-12-12T11:13:39.471Z,11.00
2022-12-12T11:14:39.464Z,11.40
2022-12-12T11:15:39.440Z,10.20
2022-12-12T11:16:39.768Z,10.30
2022-12-12T11:17:39.650Z,11.10
2022-12-12T11:18:39.409Z,10.10
2022-12-12T11:19:39.501Z,10.30
2022-12-12T11:20:39.382Z,9.90
2022-12-12T11:21:39.597Z,9.70
2022-12-12T11:22:39.354Z,10.40
2022-12-12T11:23:39.356Z,9.90
2022-12-12T11:24:39.338Z,9.70
2022-12-12T11:25:39.316Z,9.30
2022-12-12T11:26:39.306Z,10.50
2022-12-12T11:27:39.546Z,9.20
2022-12-12T11:28:39.290Z,9.00
2022-12-12T11:29:39.265Z,9.20
2022-12-12T11:30:39.260Z,8.70
2022-12-12T11:31:39.256Z,8.80
2022-12-12T11:32:39.435Z,8.30
2022-12-12T11:33:39.221Z,9.10
2022-12-12T11:34:39.222Z,8.60
2022-12-12T11:35:45.545Z,8.50
2022-12-12T11:36:40.173Z,8.40
2022-12-12T11:37:39.463Z,8.70
2022-12-12T11:38:39.153Z,9.20
2022-12-12T11:39:39.135Z,8.50
2022-12-12T11:40:39.162Z,9.10
2022-12-12T11:41:39.120Z,9.10
2022-12-12T11:42:39.351Z,9.00
2022-12-12T11:43:39.093Z,9.10
2022-12-12T11:44:39.081Z,9.00
2022-12-12T11:45:39.115Z,8.80
2022-12-12T11:46:39.054Z,8.70
2022-12-12T11:47:39.274Z,8.30
2022-12-12T11:48:39.030Z,8.10
2022-12-12T11:49:39.019Z,8.90
2022-12-12T11:50:39.001Z,8.30
2022-12-12T11:51:38.988Z,9.50
2022-12-12T11:52:39.190Z,10.50
2022-12-12T11:53:38.961Z,9.10
2022-12-12T11:54:38.959Z,9.10
2022-12-12T11:55:38.929Z,8.90
2022-12-12T11:56:38.929Z,9.40
2022-12-12T11:57:38.947Z,9.80
2022-12-12T11:58:38.911Z,8.90
2022-12-12T11:59:38.880Z,9.60
2022-12-12T12:00:38.872Z,8.10
2022-12-12T12:01:38.851Z,9.30
2022-12-12T12:02:39.040Z,8.80
2022-12-12T12:03:38.852Z,8.20
2022-12-12T12:04:38.862Z,8.10
2022-12-12T12:05:38.809Z,8.80
2022-12-12T12:06:38.811Z,8.90
2022-12-12T12:07:38.990Z,8.40
2022-12-12T12:08:38.882Z,9.10
2022-12-12T12:09:38.754Z,9.30
2022-12-12T12:10:38.749Z,9.30
2022-12-12T12:11:38.738Z,8.40
2022-12-12T12:12:38.725Z,9.40
2022-12-12T12:13:38.924Z,9.30
2022-12-12T12:14:38.704Z,9.00
2022-12-12T12:15:38.720Z,9.30
2022-12-12T12:16:38.695Z,9.20
2022-12-12T12:17:38.667Z,9.70
2022-12-12T12:18:38.634Z,8.70
2022-12-12T12:19:38.824Z,8.50
2022-12-12T12:20:38.624Z,8.60
2022-12-12T12:21:38.602Z,7.90
2022-12-12T12:22:38.603Z,8.20
2022-12-12T12:23:42.478Z,8.10
2022-12-12T12:24:39.615Z,7.40
2022-12-12T12:25:38.558Z,8.50
2022-12-12T12:26:38.544Z,9.10
2022-12-12T12:27:38.534Z,8.60
2022-12-12T12:28:38.542Z,8.60
2022-12-12T12:29:38.692Z,8.50
2022-12-12T12:30:38.506Z,8.50
2022-12-12T12:31:38.471Z,9.00
2022-12-12T12:32:38.681Z,8.50
2022-12-12T12:33:38.441Z,9.00
2022-12-12T12:34:38.442Z,9.50
2022-12-12T12:35:38.421Z,8.50
2022-12-12T12:36:38.636Z,8.20
2022-12-12T12:37:38.392Z,8.10
2022-12-12T12:38:38.392Z,8.10
2022-12-12T12:39:38.377Z,7.20
2022-12-12T12:40:38.419Z,7.00
2022-12-12T12:41:38.370Z,7.20
2022-12-12T12:42:38.340Z,6.80
2022-12-12T12:43:38.348Z,6.80
2022-12-12T12:44:38.308Z,6.50
2022-12-12T12:45:38.498Z,7.00
2022-12-12T12:46:38.300Z,6.90
2022-12-12T12:47:38.278Z,7.30
2022-12-12T12:48:38.257Z,7.10
2022-12-12T12:49:38.300Z,6.60
2022-12-12T12:50:38.449Z,8.20
2022-12-12T12:51:38.223Z,7.80
2022-12-12T12:52:38.415Z,9.20
2022-12-12T12:53:38.208Z,9.30
2022-12-12T12:54:38.185Z,7.00
2022-12-12T12:55:38.395Z,6.70
2022-12-12T12:56:43.421Z,7.00